createdAt,value
2018-12-06T00:01:22.777Z,12.13
2018-12-06T00:03:50.269Z,11.83
2018-12-06T00:06:17.769Z,11.63
2018-12-06T00:08:45.312Z,10.00
2018-12-06T00:11:12.822Z,11.73
2018-12-06T00:13:40.363Z,11.53
2018-12-06T00:16:07.863Z,10.93
2018-12-06T00:18:35.361Z,11.00
2018-12-06T00:21:02.857Z,11.27
2018-12-06T00:23:30.352Z,10.73
2018-12-06T00:25:57.861Z,14.27
2018-12-06T00:28:25.364Z,12.40
2018-12-06T00:30:52.893Z,11.23
2018-12-06T00:33:20.384Z,11.00
2018-12-06T00:35:47.896Z,11.77
2018-12-06T00:38:15.809Z,10.83
2018-12-06T00:40:43.338Z,10.17
2018-12-06T00:43:10.867Z,9.20
2018-12-06T00:45:38.385Z,10.20
2018-12-06T00:48:05.885Z,10.03
2018-12-06T00:50:33.386Z,10.73
2018-12-06T00:53:01.009Z,10.53
2018-12-06T00:55:28.504Z,10.50
2018-12-06T00:57:55.992Z,10.43
2018-12-06T01:00:23.497Z,10.60
2018-12-06T01:02:51.029Z,10.90
2018-12-06T01:05:18.542Z,10.20
2018-12-06T01:07:46.067Z,10.17
2018-12-06T01:10:13.589Z,9.80
2018-12-06T01:12:41.085Z,10.50
2018-12-06T01:15:08.613Z,10.50
2018-12-06T01:17:36.125Z,10.93
2018-12-06T01:20:03.929Z,9.90
2018-12-06T01:22:31.432Z,10.60
2018-12-06T01:24:59.151Z,9.47
2018-12-06T01:27:26.693Z,10.13
2018-12-06T01:29:54.203Z,10.50
2018-12-06T01:32:21.696Z,10.60
2018-12-06T01:34:49.229Z,10.00
2018-12-06T01:37:16.733Z,10.27
2018-12-06T01:39:44.232Z,10.80
2018-12-06T01:42:11.744Z,9.13
2018-12-06T01:44:39.243Z,9.87
2018-12-06T01:47:06.757Z,9.40
2018-12-06T01:49:34.250Z,9.23
2018-12-06T01:52:01.755Z,10.10
2018-12-06T01:54:29.259Z,9.13
2018-12-06T01:56:56.757Z,8.57
2018-12-06T01:59:24.278Z,9.20
2018-12-06T02:01:51.790Z,9.87
2018-12-06T02:04:19.285Z,9.93
2018-12-06T02:06:46.791Z,8.80
2018-12-06T02:09:14.295Z,9.23
2018-12-06T02:11:41.821Z,9.30
2018-12-06T02:14:09.327Z,9.37
2018-12-06T02:16:36.825Z,8.80
2018-12-06T02:19:04.321Z,9.03
2018-12-06T02:21:31.816Z,10.10
2018-12-06T02:23:59.329Z,9.47
2018-12-06T02:26:26.825Z,9.90
2018-12-06T02:28:54.318Z,9.17
2018-12-06T02:31:21.826Z,9.80
2018-12-06T02:33:49.333Z,9.77
2018-12-06T02:36:16.858Z,9.73
2018-12-06T02:38:44.359Z,8.87
2018-12-06T02:41:11.863Z,9.50
2018-12-06T02:43:39.358Z,9.43
2018-12-06T02:46:06.875Z,9.30
2018-12-06T02:48:34.376Z,9.50
2018-12-06T02:51:01.885Z,8.67
2018-12-06T02:53:29.393Z,9.60
2018-12-06T02:55:56.897Z,9.47
2018-12-06T02:58:24.382Z,9.37
2018-12-06T03:00:51.881Z,9.20
2018-12-06T03:03:20.085Z,8.90
2018-12-06T03:05:47.605Z,9.50
2018-12-06T03:08:15.113Z,9.40
2018-12-06T03:10:42.618Z,9.43
2018-12-06T03:13:10.128Z,9.97
2018-12-06T03:15:37.631Z,10.70
2018-12-06T03:18:05.142Z,11.63
2018-12-06T03:20:32.662Z,11.80
2018-12-06T03:23:00.170Z,12.33
2018-12-06T03:25:27.661Z,11.30
2018-12-06T03:27:55.177Z,10.53
2018-12-06T03:30:22.694Z,10.30
2018-12-06T03:32:50.317Z,10.40
2018-12-06T03:35:17.836Z,11.43
2018-12-06T03:37:45.343Z,12.50
2018-12-06T03:40:12.842Z,12.90
2018-12-06T03:42:40.347Z,13.53
2018-12-06T03:45:07.885Z,11.70
2018-12-06T03:47:35.381Z,12.67
2018-12-06T03:50:03.162Z,11.83
2018-12-06T03:52:30.667Z,11.50
2018-12-06T03:54:58.169Z,12.63
2018-12-06T03:57:25.656Z,12.17
2018-12-06T03:59:53.167Z,12.07
2018-12-06T04:02:20.689Z,11.13
2018-12-06T04:04:48.186Z,10.60
2018-12-06T04:07:15.682Z,11.13
2018-12-06T04:09:43.186Z,10.50
2018-12-06T04:12:10.690Z,11.60
2018-12-06T04:14:38.199Z,11.17
2018-12-06T04:17:05.696Z,10.50
2018-12-06T04:19:33.198Z,11.73
2018-12-06T04:22:00.713Z,11.30
2018-12-06T04:24:29.185Z,11.60
2018-12-06T04:26:56.950Z,11.87
2018-12-06T04:29:24.485Z,12.23
2018-12-06T04:31:52.009Z,11.97
2018-12-06T04:34:19.534Z,12.93
2018-12-06T04:36:47.176Z,13.00
2018-12-06T04:39:14.723Z,12.50
2018-12-06T04:41:42.241Z,11.57
2018-12-06T04:44:09.770Z,12.80
2018-12-06T04:46:37.417Z,13.40
2018-12-06T04:49:04.972Z,13.00
2018-12-06T04:51:32.506Z,14.40
2018-12-06T04:54:00.012Z,12.90
2018-12-06T04:56:27.659Z,12.53
2018-12-06T04:58:55.209Z,11.90
2018-12-06T05:01:22.754Z,12.53
2018-12-06T05:03:50.270Z,13.77
2018-12-06T05:06:17.775Z,12.83
2018-12-06T05:08:45.275Z,12.83
2018-12-06T05:11:12.801Z,14.10
2018-12-06T05:13:40.310Z,14.40
2018-12-06T05:16:07.806Z,13.87
2018-12-06T05:18:35.305Z,14.57
2018-12-06T05:21:02.825Z,13.80
2018-12-06T05:23:30.312Z,15.87
2018-12-06T05:25:57.833Z,14.50
2018-12-06T05:28:25.328Z,13.87
2018-12-06T05:30:52.839Z,13.87
2018-12-06T05:33:20.352Z,14.23
2018-12-06T05:35:47.848Z,14.30
2018-12-06T05:38:15.373Z,13.50
2018-12-06T05:40:42.882Z,13.57
2018-12-06T05:43:10.386Z,14.57
2018-12-06T05:45:37.882Z,13.97
2018-12-06T05:48:05.395Z,14.90
2018-12-06T05:50:32.925Z,15.27
2018-12-06T05:53:00.443Z,15.43
2018-12-06T05:55:27.947Z,17.00
2018-12-06T05:57:55.440Z,16.17
2018-12-06T06:00:22.941Z,15.07
2018-12-06T06:02:50.464Z,14.40
2018-12-06T06:05:17.977Z,15.00
2018-12-06T06:07:45.486Z,15.27
2018-12-06T06:10:12.989Z,14.87
2018-12-06T06:12:40.482Z,15.20
2018-12-06T06:15:07.998Z,14.37
2018-12-06T06:17:35.488Z,15.17
2018-12-06T06:20:03.007Z,14.83
2018-12-06T06:22:30.520Z,14.50
2018-12-06T06:24:58.026Z,13.47
2018-12-06T06:27:26.362Z,13.33
2018-12-06T06:29:53.993Z,13.03
2018-12-06T06:32:21.494Z,12.87
2018-12-06T06:34:49.000Z,14.57
2018-12-06T06:37:16.503Z,12.63
2018-12-06T06:39:44.037Z,13.37
2018-12-06T06:42:11.534Z,13.43
2018-12-06T06:44:39.038Z,13.87
2018-12-06T06:47:06.549Z,15.23
2018-12-06T06:49:34.040Z,15.30
2018-12-06T06:52:01.566Z,16.63
2018-12-06T06:54:29.069Z,17.23
2018-12-06T06:56:56.573Z,15.57
2018-12-06T06:59:26.218Z,15.83
2018-12-06T07:01:53.640Z,15.70
2018-12-06T07:04:21.151Z,15.07
2018-12-06T07:06:48.648Z,15.53
2018-12-06T07:09:16.168Z,17.33
2018-12-06T07:11:43.666Z,15.53
2018-12-06T07:14:11.282Z,16.80
2018-12-06T07:16:39.233Z,15.83
2018-12-06T07:19:06.752Z,15.73
2018-12-06T07:21:34.285Z,16.07
2018-12-06T07:24:01.809Z,17.20
2018-12-06T07:26:29.323Z,15.60
2018-12-06T07:28:56.940Z,15.87
2018-12-06T07:31:24.443Z,15.97
2018-12-06T07:33:51.950Z,16.03
2018-12-06T07:36:19.453Z,15.77
2018-12-06T07:38:46.947Z,15.10
2018-12-06T07:41:14.508Z,16.07
2018-12-06T07:43:42.088Z,16.57
2018-12-06T07:46:10.172Z,15.77
2018-12-06T07:48:39.421Z,15.53
2018-12-06T07:51:07.188Z,15.80
2018-12-06T07:53:34.757Z,16.10
2018-12-06T07:56:02.310Z,16.70
2018-12-06T07:58:29.866Z,16.97
2018-12-06T08:00:57.448Z,16.70
2018-12-06T08:03:24.984Z,16.00
2018-12-06T08:05:52.582Z,17.83
2018-12-06T08:08:20.562Z,16.80
2018-12-06T08:10:48.173Z,18.00
2018-12-06T08:13:15.742Z,16.90
2018-12-06T08:15:43.312Z,18.17
2018-12-06T08:18:10.923Z,19.43
2018-12-06T08:20:38.453Z,19.27
2018-12-06T08:23:05.961Z,18.47
2018-12-06T08:25:33.484Z,16.57
2018-12-06T08:28:01.030Z,17.23
2018-12-06T08:30:28.596Z,16.67
2018-12-06T08:32:56.193Z,16.77
2018-12-06T08:35:23.778Z,15.73
2018-12-06T08:37:51.337Z,15.30
2018-12-06T08:40:18.930Z,15.10
2018-12-06T08:42:46.481Z,15.27
2018-12-06T08:45:14.058Z,15.30
2018-12-06T08:47:41.633Z,15.33
2018-12-06T08:50:09.153Z,16.30
2018-12-06T08:52:36.742Z,16.07
2018-12-06T08:55:04.285Z,15.80
2018-12-06T08:57:31.873Z,15.23
2018-12-06T08:59:59.436Z,15.03
2018-12-06T09:02:27.024Z,16.27
2018-12-06T09:04:54.561Z,15.30
2018-12-06T09:07:22.192Z,16.27
2018-12-06T09:09:49.774Z,16.47
2018-12-06T09:12:17.327Z,15.43
2018-12-06T09:14:45.921Z,14.20
2018-12-06T09:17:16.779Z,15.83
2018-12-06T09:19:44.351Z,17.23
2018-12-06T09:22:11.891Z,17.07
2018-12-06T09:24:39.442Z,15.83
2018-12-06T09:27:07.039Z,15.63
2018-12-06T09:29:34.597Z,16.77
2018-12-06T09:32:02.157Z,15.17
2018-12-06T09:34:29.723Z,16.07
2018-12-06T09:36:57.285Z,16.80
2018-12-06T09:39:24.871Z,17.37
2018-12-06T09:41:52.450Z,17.43
2018-12-06T09:44:20.000Z,18.10
2018-12-06T09:46:47.617Z,17.00
2018-12-06T09:49:15.185Z,17.27
2018-12-06T09:51:42.746Z,16.37
2018-12-06T09:54:10.296Z,17.43
2018-12-06T09:56:37.876Z,18.23
2018-12-06T09:59:05.441Z,18.97
2018-12-06T10:01:33.009Z,18.37
2018-12-06T10:04:00.569Z,17.97
2018-12-06T10:06:28.140Z,17.00
2018-12-06T10:08:55.717Z,16.80
2018-12-06T10:11:23.250Z,16.63
2018-12-06T10:13:50.815Z,17.13
2018-12-06T10:16:18.370Z,16.63
2018-12-06T10:18:45.948Z,17.13
2018-12-06T10:21:13.500Z,18.63
2018-12-06T10:23:41.194Z,18.20
2018-12-06T10:26:08.771Z,18.83
2018-12-06T10:28:36.329Z,20.03
2018-12-06T10:31:03.929Z,19.07
2018-12-06T10:33:31.538Z,18.97
2018-12-06T10:35:59.098Z,20.10
2018-12-06T10:38:26.680Z,17.47
2018-12-06T10:40:54.263Z,18.50
2018-12-06T10:43:21.822Z,17.77
2018-12-06T10:45:49.386Z,18.40
2018-12-06T10:48:16.944Z,18.10
2018-12-06T10:50:44.506Z,19.27
2018-12-06T10:53:12.105Z,18.90
2018-12-06T10:55:39.669Z,18.90
2018-12-06T10:58:07.227Z,18.90
2018-12-06T11:00:40.341Z,19.63
2018-12-06T11:03:19.807Z,17.90
2018-12-06T11:05:47.395Z,19.87
2018-12-06T11:08:48.222Z,18.60
2018-12-06T11:11:15.797Z,18.50
2018-12-06T11:13:43.338Z,18.27
2018-12-06T11:16:10.917Z,18.80
2018-12-06T11:18:38.477Z,18.57
2018-12-06T11:21:06.018Z,16.87
2018-12-06T11:23:33.586Z,18.00
2018-12-06T11:26:01.133Z,18.20
2018-12-06T11:28:28.682Z,18.10
2018-12-06T11:30:56.262Z,19.07
2018-12-06T11:33:23.835Z,18.87
2018-12-06T11:35:51.381Z,19.40
2018-12-06T11:38:18.947Z,19.47
2018-12-06T11:40:46.484Z,18.67
2018-12-06T11:43:14.053Z,19.07
2018-12-06T11:45:41.621Z,18.17
2018-12-06T11:48:09.202Z,19.90
2018-12-06T11:50:36.755Z,18.53
2018-12-06T11:53:04.297Z,18.83
2018-12-06T11:55:32.005Z,17.57
2018-12-06T11:57:59.693Z,17.53
2018-12-06T12:00:27.278Z,17.73
2018-12-06T12:02:54.837Z,18.63
2018-12-06T12:05:22.406Z,18.73
2018-12-06T12:07:49.929Z,18.90
2018-12-06T12:10:17.516Z,18.60
2018-12-06T12:12:45.035Z,23.87
2018-12-06T12:15:12.611Z,17.77
2018-12-06T12:17:40.197Z,18.87
2018-12-06T12:20:07.773Z,20.17
2018-12-06T12:22:35.685Z,17.63
2018-12-06T12:25:03.230Z,19.10
2018-12-06T12:27:30.991Z,20.77
2018-12-06T12:29:58.586Z,19.87
2018-12-06T12:32:26.236Z,19.40
2018-12-06T12:34:53.761Z,21.03
2018-12-06T12:37:21.310Z,19.03
2018-12-06T12:39:48.840Z,19.97
2018-12-06T12:42:16.362Z,18.37
2018-12-06T12:44:43.908Z,18.90
2018-12-06T12:47:11.450Z,18.53
2018-12-06T12:49:39.001Z,19.97
2018-12-06T12:52:06.552Z,20.03
2018-12-06T12:54:34.074Z,21.27
2018-12-06T12:57:01.637Z,21.33
2018-12-06T12:59:29.232Z,20.63
2018-12-06T13:01:56.782Z,20.57
2018-12-06T13:04:24.310Z,19.73
2018-12-06T13:06:51.843Z,23.03
2018-12-06T13:09:19.393Z,20.23
2018-12-06T13:11:46.936Z,22.17
2018-12-06T13:14:14.480Z,21.37
2018-12-06T13:16:42.065Z,19.80
2018-12-06T13:19:09.625Z,19.70
2018-12-06T13:21:37.161Z,20.93
2018-12-06T13:24:04.690Z,20.03
2018-12-06T13:26:32.246Z,20.50
2018-12-06T13:28:59.830Z,20.20
2018-12-06T13:31:27.358Z,23.63
2018-12-06T13:33:54.896Z,31.10
2018-12-06T13:36:22.500Z,29.27
2018-12-06T13:38:50.197Z,23.33
2018-12-06T13:41:17.919Z,24.20
2018-12-06T13:43:45.510Z,25.83
2018-12-06T13:46:13.217Z,30.87
2018-12-06T13:48:40.762Z,28.50
2018-12-06T13:51:08.518Z,25.90
2018-12-06T13:53:36.083Z,25.47
2018-12-06T13:56:03.633Z,23.53
2018-12-06T13:58:31.292Z,24.20
2018-12-06T14:00:59.147Z,23.80
2018-12-06T14:03:26.921Z,24.63
2018-12-06T14:05:54.565Z,24.43
2018-12-06T14:08:22.190Z,26.67
2018-12-06T14:10:49.845Z,24.10
2018-12-06T14:13:23.624Z,24.17
2018-12-06T14:15:47.127Z,23.63
2018-12-06T14:18:14.833Z,22.47
2018-12-06T14:20:42.500Z,22.17
2018-12-06T14:23:10.049Z,22.67
2018-12-06T14:25:37.604Z,23.20
2018-12-06T14:28:05.170Z,23.50
2018-12-06T14:30:33.790Z,23.50
2018-12-06T14:33:01.443Z,21.83
2018-12-06T14:35:30.079Z,21.33
2018-12-06T14:37:57.694Z,22.13
2018-12-06T14:40:25.626Z,22.80
2018-12-06T14:42:53.399Z,21.40
2018-12-06T14:45:20.953Z,21.73
2018-12-06T14:47:48.511Z,23.80
2018-12-06T14:50:16.171Z,24.63
2018-12-06T14:52:43.841Z,25.37
2018-12-06T14:55:11.429Z,26.27
2018-12-06T14:57:39.112Z,26.87
2018-12-06T15:00:07.784Z,31.57
2018-12-06T15:02:35.319Z,31.97
2018-12-06T15:05:02.928Z,31.97
2018-12-06T15:07:30.557Z,27.70
2018-12-06T15:09:58.211Z,24.90
2018-12-06T15:12:25.825Z,24.07
2018-12-06T15:14:53.375Z,23.87
2018-12-06T15:17:20.950Z,24.13
2018-12-06T15:19:48.534Z,23.30
2018-12-06T15:22:16.084Z,23.50
2018-12-06T15:24:43.608Z,24.40
2018-12-06T15:27:11.205Z,24.67
2018-12-06T15:29:38.757Z,24.80
2018-12-06T15:32:06.297Z,23.57
2018-12-06T15:34:33.887Z,23.93
2018-12-06T15:37:01.438Z,22.77
2018-12-06T15:39:28.996Z,22.30
2018-12-06T15:41:56.527Z,22.30
2018-12-06T15:44:24.119Z,22.37
2018-12-06T15:46:51.658Z,24.60
2018-12-06T15:49:19.234Z,24.13
2018-12-06T15:51:46.908Z,23.10
2018-12-06T15:54:14.470Z,23.23
2018-12-06T15:56:42.031Z,26.07
2018-12-06T15:59:09.593Z,24.67
2018-12-06T16:01:37.144Z,24.93
2018-12-06T16:04:04.704Z,26.77
2018-12-06T16:06:32.246Z,25.70
2018-12-06T16:08:59.781Z,26.07
2018-12-06T16:11:27.315Z,28.63
2018-12-06T16:13:54.916Z,28.67
2018-12-06T16:16:22.467Z,30.47
2018-12-06T16:18:50.046Z,28.77
2018-12-06T16:21:17.622Z,29.37
2018-12-06T16:23:45.182Z,28.97
2018-12-06T16:26:12.785Z,28.17
2018-12-06T16:28:40.321Z,30.03
2018-12-06T16:31:07.842Z,30.83
2018-12-06T16:33:35.381Z,29.07
2018-12-06T16:36:02.921Z,33.13
2018-12-06T16:38:30.446Z,35.57
2018-12-06T16:40:58.012Z,35.20
2018-12-06T16:43:25.583Z,35.83
2018-12-06T16:45:53.161Z,35.27
2018-12-06T16:48:20.716Z,39.87
2018-12-06T16:50:48.281Z,42.43
2018-12-06T16:53:15.914Z,38.00
2018-12-06T16:55:43.461Z,39.67
2018-12-06T16:58:11.042Z,42.70
2018-12-06T17:00:38.627Z,40.67
2018-12-06T17:03:06.291Z,39.93
2018-12-06T17:05:33.851Z,41.93
2018-12-06T17:08:01.401Z,40.10
2018-12-06T17:10:28.963Z,38.23
2018-12-06T17:12:56.555Z,35.37
2018-12-06T17:15:24.144Z,33.87
2018-12-06T17:17:51.706Z,32.37
2018-12-06T17:20:19.294Z,31.53
2018-12-06T17:22:46.900Z,29.63
2018-12-06T17:25:14.488Z,29.57
2018-12-06T17:27:42.037Z,29.60
2018-12-06T17:30:09.845Z,29.93
2018-12-06T17:32:37.583Z,29.10
2018-12-06T17:35:05.476Z,28.70
2018-12-06T17:37:33.021Z,27.07
2018-12-06T17:40:00.567Z,25.53
2018-12-06T17:42:28.144Z,26.63
2018-12-06T17:44:55.704Z,24.90
2018-12-06T17:47:23.235Z,24.73
2018-12-06T17:49:50.796Z,23.60
2018-12-06T17:52:18.363Z,21.77
2018-12-06T17:54:45.919Z,20.70
2018-12-06T17:57:13.474Z,21.27
2018-12-06T17:59:41.019Z,20.40
2018-12-06T18:02:08.552Z,21.73
2018-12-06T18:04:36.124Z,23.50
2018-12-06T18:07:03.726Z,22.83
2018-12-06T18:09:31.210Z,22.63
2018-12-06T18:11:58.761Z,22.03
2018-12-06T18:14:26.293Z,21.70
2018-12-06T18:16:53.896Z,21.73
2018-12-06T18:19:21.430Z,23.07
2018-12-06T18:21:49.045Z,22.30
2018-12-06T18:24:18.716Z,22.40
2018-12-06T18:26:46.248Z,21.93
2018-12-06T18:29:13.819Z,20.77
2018-12-06T18:31:41.364Z,20.13
2018-12-06T18:34:08.887Z,20.20
2018-12-06T18:36:36.471Z,20.03
2018-12-06T18:39:06.574Z,19.43
2018-12-06T18:41:34.157Z,19.53
2018-12-06T18:44:01.739Z,19.97
2018-12-06T18:46:29.355Z,18.97
2018-12-06T18:48:56.925Z,18.90
2018-12-06T18:51:24.453Z,19.40
2018-12-06T18:53:52.097Z,18.90
2018-12-06T18:56:19.732Z,18.33
2018-12-06T18:58:47.300Z,17.40
2018-12-06T19:01:14.950Z,17.33
2018-12-06T19:03:42.504Z,17.37
2018-12-06T19:06:10.083Z,17.97
2018-12-06T19:08:37.639Z,16.63
2018-12-06T19:11:05.187Z,17.93
2018-12-06T19:13:32.747Z,19.87
2018-12-06T19:16:00.322Z,18.57
2018-12-06T19:18:27.815Z,18.70
2018-12-06T19:20:55.345Z,17.00
2018-12-06T19:23:22.908Z,17.77
2018-12-06T19:25:50.493Z,18.67
2018-12-06T19:28:18.062Z,19.17
2018-12-06T19:30:46.620Z,21.57
2018-12-06T19:33:14.169Z,23.07
2018-12-06T19:35:41.755Z,22.63
2018-12-06T19:38:09.310Z,23.80
2018-12-06T19:40:36.853Z,22.37
2018-12-06T19:43:04.350Z,24.53
2018-12-06T19:45:31.905Z,23.63
2018-12-06T19:47:59.391Z,23.40
2018-12-06T19:50:26.887Z,22.50
2018-12-06T19:52:54.383Z,20.40
2018-12-06T19:55:21.887Z,21.67
2018-12-06T19:57:49.433Z,21.63
2018-12-06T20:00:16.979Z,20.10
2018-12-06T20:02:44.487Z,21.13
2018-12-06T20:05:11.980Z,20.00
2018-12-06T20:07:39.521Z,20.57
2018-12-06T20:10:07.652Z,20.53
2018-12-06T20:12:35.220Z,21.47
2018-12-06T20:15:02.799Z,21.83
2018-12-06T20:17:30.297Z,20.67
2018-12-06T20:19:57.817Z,20.83
2018-12-06T20:22:25.359Z,19.77
2018-12-06T20:24:52.870Z,19.40
2018-12-06T20:27:20.425Z,20.10
2018-12-06T20:29:47.986Z,18.10
2018-12-06T20:32:15.504Z,19.13
2018-12-06T20:34:43.026Z,19.07
2018-12-06T20:37:10.586Z,18.77
2018-12-06T20:39:38.153Z,17.87
2018-12-06T20:42:05.719Z,18.73
2018-12-06T20:44:33.277Z,18.77
2018-12-06T20:47:00.803Z,18.17
2018-12-06T20:49:28.357Z,18.67
2018-12-06T20:51:55.907Z,19.77
2018-12-06T20:54:23.477Z,17.73
2018-12-06T20:56:51.052Z,16.97
2018-12-06T20:59:18.624Z,18.97
2018-12-06T21:01:46.208Z,17.67
2018-12-06T21:04:13.791Z,16.10
2018-12-06T21:06:41.346Z,16.67
2018-12-06T21:09:08.894Z,16.10
2018-12-06T21:11:36.443Z,17.00
2018-12-06T21:14:04.001Z,15.37
2018-12-06T21:16:31.563Z,15.43
2018-12-06T21:18:59.130Z,16.00
2018-12-06T21:21:26.696Z,15.20
2018-12-06T21:23:54.257Z,14.60
2018-12-06T21:26:21.818Z,15.03
2018-12-06T21:28:49.343Z,15.23
2018-12-06T21:31:16.885Z,15.90
2018-12-06T21:33:44.430Z,15.87
2018-12-06T21:36:11.954Z,15.17
2018-12-06T21:38:39.462Z,14.20
2018-12-06T21:41:07.031Z,15.93
2018-12-06T21:43:34.601Z,14.33
2018-12-06T21:46:02.201Z,14.27
2018-12-06T21:48:29.702Z,13.80
2018-12-06T21:50:57.285Z,14.77
2018-12-06T21:53:24.809Z,14.07
2018-12-06T21:55:52.348Z,14.77
2018-12-06T21:58:19.899Z,14.37
2018-12-06T22:00:47.450Z,14.07
2018-12-06T22:03:14.972Z,13.20
2018-12-06T22:05:42.498Z,14.30
2018-12-06T22:08:10.049Z,14.87
2018-12-06T22:10:37.701Z,13.87
2018-12-06T22:13:05.283Z,14.93
2018-12-06T22:15:32.868Z,14.53
2018-12-06T22:18:00.376Z,14.60
2018-12-06T22:20:27.918Z,14.57
2018-12-06T22:22:55.448Z,15.00
2018-12-06T22:25:22.987Z,14.17
2018-12-06T22:27:50.538Z,14.53
2018-12-06T22:30:18.074Z,14.80
2018-12-06T22:32:45.670Z,13.83
2018-12-06T22:35:13.283Z,16.20
2018-12-06T22:37:40.828Z,15.00
2018-12-06T22:40:08.376Z,14.73
2018-12-06T22:42:35.951Z,16.03
2018-12-06T22:45:25.281Z,16.37
2018-12-06T22:47:52.828Z,16.43
2018-12-06T22:50:20.362Z,16.00
2018-12-06T22:52:47.913Z,15.87
2018-12-06T22:55:15.475Z,15.67
2018-12-06T22:57:43.041Z,16.23
2018-12-06T23:00:10.695Z,15.40
2018-12-06T23:02:38.261Z,16.20
2018-12-06T23:05:05.813Z,16.70
2018-12-06T23:07:33.374Z,16.23
2018-12-06T23:10:00.924Z,15.90
2018-12-06T23:12:28.462Z,15.37
2018-12-06T23:14:56.001Z,16.23
2018-12-06T23:17:23.558Z,16.00
2018-12-06T23:19:51.107Z,15.70
2018-12-06T23:22:18.672Z,15.33
2018-12-06T23:24:46.215Z,14.37
2018-12-06T23:27:13.804Z,15.37
2018-12-06T23:29:41.349Z,14.50
2018-12-06T23:32:08.902Z,14.33
2018-12-06T23:34:36.574Z,14.70
2018-12-06T23:37:04.123Z,14.60
2018-12-06T23:39:31.695Z,14.40
2018-12-06T23:41:59.219Z,14.27
2018-12-06T23:44:26.754Z,14.23
2018-12-06T23:46:54.355Z,14.00
2018-12-06T23:49:21.931Z,14.17
2018-12-06T23:51:49.492Z,14.23
2018-12-06T23:54:17.062Z,13.53
2018-12-06T23:56:44.635Z,14.10
2018-12-06T23:59:12.180Z,14.20
